Hlavní strana
METAR-TAF:

METAR-TAF

Letiště :

Centralia Municipal Airport

Centralia, Illinois, Spojené státy americké

zeměpisná šířka: 38-30-53N, zeměpisná délka: 089-05-32W, výška: 163 m

Aktuální stav počasí

Zpráva byla vytvořena před 12 minutami, v 03:15 UTC
Západní vítr 4 kt
Teplota 7°C
Vlhkost vzduchu 66%
Tlak 1022 hPa
Viditelnost: 16.1 km
Zataženo ve výšce 9000 ft

METAR: KENL 220315Z AUTO 28004KT 10SM OVC090 07/01 A3017 RMK AO2 T00650014

Čas: 22:27 (03:27 UTC)


TAF: chybějící

Stav a předpovědi počasí z více než 4 000 letišť (zprávy METAR a TAF).

Červené a žluté tečky na mapě představují dostupné meteorologické stanice.

Když kurzor umístíte na tečku, zobrazí se název stanice.

Pak kliknutím zobrazíte stav a předpověď počasí.

Chcete-li změnit mapu, kliknutím na zelené tlačítko se znaménkem +mapu přiblížíte, kliknutím na zelené tlačítko se znaménkem – mapu oddálíte a kliknutím na zelené šipky přejdete na sousední mapy.


METAR-TAF: